sensor_id;sensor_type;location;lat;lon;timestamp;temperature;humidity
13652;DHT22;6899;51.546;6.912;2023-04-25T00:02:20;5.60;99.90
13652;DHT22;6899;51.546;6.912;2023-04-25T00:04:47;5.50;99.90
13652;DHT22;6899;51.546;6.912;2023-04-25T00:07:15;5.40;99.90
13652;DHT22;6899;51.546;6.912;2023-04-25T00:09:42;5.40;99.90
13652;DHT22;6899;51.546;6.912;2023-04-25T00:12:09;5.30;99.90
13652;DHT22;6899;51.546;6.912;2023-04-25T00:14:35;5.40;99.90
13652;DHT22;6899;51.546;6.912;2023-04-25T00:17:02;5.30;99.90
13652;DHT22;6899;51.546;6.912;2023-04-25T00:19:33;5.40;99.90
13652;DHT22;6899;51.546;6.912;2023-04-25T00:22:00;5.50;99.90
13652;DHT22;6899;51.546;6.912;2023-04-25T00:24:27;5.60;99.90
13652;DHT22;6899;51.546;6.912;2023-04-25T00:26:54;5.70;99.90
13652;DHT22;6899;51.546;6.912;2023-04-25T00:29:20;5.70;99.90
13652;DHT22;6899;51.546;6.912;2023-04-25T00:31:47;5.80;99.90
13652;DHT22;6899;51.546;6.912;2023-04-25T00:34:14;5.90;99.90
13652;DHT22;6899;51.546;6.912;2023-04-25T00:36:42;5.90;99.90
13652;DHT22;6899;51.546;6.912;2023-04-25T00:39:09;5.90;99.90
13652;DHT22;6899;51.546;6.912;2023-04-25T00:41:35;5.80;99.90
13652;DHT22;6899;51.546;6.912;2023-04-25T00:44:03;5.80;99.90
13652;DHT22;6899;51.546;6.912;2023-04-25T00:46:32;5.80;99.90
13652;DHT22;6899;51.546;6.912;2023-04-25T00:48:59;5.80;99.90
13652;DHT22;6899;51.546;6.912;2023-04-25T00:51:26;5.80;99.90
13652;DHT22;6899;51.546;6.912;2023-04-25T00:53:54;5.70;99.90
13652;DHT22;6899;51.546;6.912;2023-04-25T00:56:21;5.70;99.90
13652;DHT22;6899;51.546;6.912;2023-04-25T00:58:52;5.70;99.90
13652;DHT22;6899;51.546;6.912;2023-04-25T01:01:20;5.70;99.90
13652;DHT22;6899;51.546;6.912;2023-04-25T01:03:49;5.70;99.90
13652;DHT22;6899;51.546;6.912;2023-04-25T01:06:16;5.80;99.90
13652;DHT22;6899;51.546;6.912;2023-04-25T01:08:47;5.80;99.90
13652;DHT22;6899;51.546;6.912;2023-04-25T01:11:18;5.80;99.90
13652;DHT22;6899;51.546;6.912;2023-04-25T01:13:45;5.80;99.90
13652;DHT22;6899;51.546;6.912;2023-04-25T01:16:12;5.70;99.90
13652;DHT22;6899;51.546;6.912;2023-04-25T01:18:39;5.60;99.90
13652;DHT22;6899;51.546;6.912;2023-04-25T01:21:08;5.50;99.90
13652;DHT22;6899;51.546;6.912;2023-04-25T01:23:36;5.30;99.90
13652;DHT22;6899;51.546;6.912;2023-04-25T01:26:04;5.30;99.90
13652;DHT22;6899;51.546;6.912;2023-04-25T01:28:30;5.40;99.90
13652;DHT22;6899;51.546;6.912;2023-04-25T01:30:59;5.50;99.90
13652;DHT22;6899;51.546;6.912;2023-04-25T01:33:26;5.60;99.90
13652;DHT22;6899;51.546;6.912;2023-04-25T01:35:52;5.70;99.90
13652;DHT22;6899;51.546;6.912;2023-04-25T01:38:23;5.80;99.90
13652;DHT22;6899;51.546;6.912;2023-04-25T01:40:51;5.80;99.90
13652;DHT22;6899;51.546;6.912;2023-04-25T01:43:18;5.80;99.90
13652;DHT22;6899;51.546;6.912;2023-04-25T01:45:45;5.80;99.90
13652;DHT22;6899;51.546;6.912;2023-04-25T01:48:15;5.90;99.90
13652;DHT22;6899;51.546;6.912;2023-04-25T01:50:42;5.90;99.90
13652;DHT22;6899;51.546;6.912;2023-04-25T01:53:10;5.90;99.90
13652;DHT22;6899;51.546;6.912;2023-04-25T01:55:40;5.90;99.90
13652;DHT22;6899;51.546;6.912;2023-04-25T01:58:08;6.00;99.90
13652;DHT22;6899;51.546;6.912;2023-04-25T02:00:37;6.00;99.90
13652;DHT22;6899;51.546;6.912;2023-04-25T02:03:04;6.00;99.90
13652;DHT22;6899;51.546;6.912;2023-04-25T02:05:34;6.00;99.90
13652;DHT22;6899;51.546;6.912;2023-04-25T02:08:02;6.00;99.90
13652;DHT22;6899;51.546;6.912;2023-04-25T02:10:29;6.00;99.90
13652;DHT22;6899;51.546;6.912;2023-04-25T02:13:01;6.00;99.90
13652;DHT22;6899;51.546;6.912;2023-04-25T02:15:27;6.00;99.90
13652;DHT22;6899;51.546;6.912;2023-04-25T02:17:54;6.00;99.90
13652;DHT22;6899;51.546;6.912;2023-04-25T02:20:22;6.00;99.90
13652;DHT22;6899;51.546;6.912;2023-04-25T02:22:49;6.00;99.90
13652;DHT22;6899;51.546;6.912;2023-04-25T02:25:25;6.00;99.90
13652;DHT22;6899;51.546;6.912;2023-04-25T02:27:52;6.00;99.90
13652;DHT22;6899;51.546;6.912;2023-04-25T02:30:20;6.10;99.90
13652;DHT22;6899;51.546;6.912;2023-04-25T02:32:47;6.10;99.90
13652;DHT22;6899;51.546;6.912;2023-04-25T02:35:14;6.10;99.90
13652;DHT22;6899;51.546;6.912;2023-04-25T02:37:41;6.10;99.90
13652;DHT22;6899;51.546;6.912;2023-04-25T02:40:09;6.10;99.90
13652;DHT22;6899;51.546;6.912;2023-04-25T02:42:36;6.00;99.90
13652;DHT22;6899;51.546;6.912;2023-04-25T02:45:03;6.00;99.90
13652;DHT22;6899;51.546;6.912;2023-04-25T02:47:40;5.90;99.90
13652;DHT22;6899;51.546;6.912;2023-04-25T02:50:08;5.90;99.90
13652;DHT22;6899;51.546;6.912;2023-04-25T02:52:34;5.80;99.90
13652;DHT22;6899;51.546;6.912;2023-04-25T02:55:01;5.80;99.90
13652;DHT22;6899;51.546;6.912;2023-04-25T02:57:34;5.80;99.90
13652;DHT22;6899;51.546;6.912;2023-04-25T03:00:01;5.80;99.90
13652;DHT22;6899;51.546;6.912;2023-04-25T03:02:27;5.70;99.90
13652;DHT22;6899;51.546;6.912;2023-04-25T03:04:55;5.70;99.90
13652;DHT22;6899;51.546;6.912;2023-04-25T03:07:22;5.70;99.90
13652;DHT22;6899;51.546;6.912;2023-04-25T03:09:52;5.80;99.90
13652;DHT22;6899;51.546;6.912;2023-04-25T03:12:19;5.70;99.90
13652;DHT22;6899;51.546;6.912;2023-04-25T03:14:46;5.70;99.90
13652;DHT22;6899;51.546;6.912;2023-04-25T03:17:12;5.70;99.90
13652;DHT22;6899;51.546;6.912;2023-04-25T03:19:39;5.70;99.90
13652;DHT22;6899;51.546;6.912;2023-04-25T03:22:07;5.70;99.90
13652;DHT22;6899;51.546;6.912;2023-04-25T03:24:34;5.70;99.90
13652;DHT22;6899;51.546;6.912;2023-04-25T03:27:02;5.70;99.90
13652;DHT22;6899;51.546;6.912;2023-04-25T03:29:28;5.70;99.90
13652;DHT22;6899;51.546;6.912;2023-04-25T03:31:55;5.70;99.90
13652;DHT22;6899;51.546;6.912;2023-04-25T03:34:22;5.70;99.90
13652;DHT22;6899;51.546;6.912;2023-04-25T03:36:49;5.80;99.90
13652;DHT22;6899;51.546;6.912;2023-04-25T03:39:17;5.80;99.90
13652;DHT22;6899;51.546;6.912;2023-04-25T03:41:44;5.70;99.90
13652;DHT22;6899;51.546;6.912;2023-04-25T03:44:10;5.70;99.90
13652;DHT22;6899;51.546;6.912;2023-04-25T03:46:37;5.70;99.90
13652;DHT22;6899;51.546;6.912;2023-04-25T03:49:04;5.70;99.90
13652;DHT22;6899;51.546;6.912;2023-04-25T03:51:31;5.70;99.90
13652;DHT22;6899;51.546;6.912;2023-04-25T03:53:57;5.70;99.90
13652;DHT22;6899;51.546;6.912;2023-04-25T03:56:29;5.70;99.90
13652;DHT22;6899;51.546;6.912;2023-04-25T03:58:56;5.70;99.90
13652;DHT22;6899;51.546;6.912;2023-04-25T04:01:22;5.70;99.90
13652;DHT22;6899;51.546;6.912;2023-04-25T04:03:49;5.70;99.90
13652;DHT22;6899;51.546;6.912;2023-04-25T04:06:16;5.70;99.90
13652;DHT22;6899;51.546;6.912;2023-04-25T04:08:44;5.60;99.90
13652;DHT22;6899;51.546;6.912;2023-04-25T04:11:17;5.70;99.90
13652;DHT22;6899;51.546;6.912;2023-04-25T04:13:45;5.60;99.90
13652;DHT22;6899;51.546;6.912;2023-04-25T04:16:12;5.70;99.90
13652;DHT22;6899;51.546;6.912;2023-04-25T04:18:38;5.60;99.90
13652;DHT22;6899;51.546;6.912;2023-04-25T04:21:05;5.60;99.90
13652;DHT22;6899;51.546;6.912;2023-04-25T04:23:32;5.60;99.90
13652;DHT22;6899;51.546;6.912;2023-04-25T04:25:59;5.50;99.90
13652;DHT22;6899;51.546;6.912;2023-04-25T04:28:26;5.30;99.90
13652;DHT22;6899;51.546;6.912;2023-04-25T04:30:54;5.20;99.90
13652;DHT22;6899;51.546;6.912;2023-04-25T04:33:21;5.20;99.90
13652;DHT22;6899;51.546;6.912;2023-04-25T04:35:49;5.10;99.90
13652;DHT22;6899;51.546;6.912;2023-04-25T04:38:17;5.20;99.90
13652;DHT22;6899;51.546;6.912;2023-04-25T04:40:45;5.20;99.90
13652;DHT22;6899;51.546;6.912;2023-04-25T04:43:13;5.20;99.90
13652;DHT22;6899;51.546;6.912;2023-04-25T04:45:42;5.30;99.90
13652;DHT22;6899;51.546;6.912;2023-04-25T04:48:11;5.20;99.90
13652;DHT22;6899;51.546;6.912;2023-04-25T04:50:39;5.30;99.90
13652;DHT22;6899;51.546;6.912;2023-04-25T04:53:06;5.30;99.90
13652;DHT22;6899;51.546;6.912;2023-04-25T04:55:33;5.30;99.90
13652;DHT22;6899;51.546;6.912;2023-04-25T04:58:00;5.40;99.90
13652;DHT22;6899;51.546;6.912;2023-04-25T05:00:27;5.40;99.90
13652;DHT22;6899;51.546;6.912;2023-04-25T05:02:54;5.50;99.90
13652;DHT22;6899;51.546;6.912;2023-04-25T05:05:22;5.50;99.90
13652;DHT22;6899;51.546;6.912;2023-04-25T05:07:49;5.50;99.90
13652;DHT22;6899;51.546;6.912;2023-04-25T05:10:16;5.50;99.90
13652;DHT22;6899;51.546;6.912;2023-04-25T05:12:43;5.70;99.90
13652;DHT22;6899;51.546;6.912;2023-04-25T05:15:10;5.70;99.90
13652;DHT22;6899;51.546;6.912;2023-04-25T05:17:46;5.80;99.90
13652;DHT22;6899;51.546;6.912;2023-04-25T05:20:13;5.90;99.90
13652;DHT22;6899;51.546;6.912;2023-04-25T05:22:42;5.90;99.90
13652;DHT22;6899;51.546;6.912;2023-04-25T05:25:09;6.10;99.90
13652;DHT22;6899;51.546;6.912;2023-04-25T05:27:39;6.20;99.90
13652;DHT22;6899;51.546;6.912;2023-04-25T05:30:06;6.20;99.90
13652;DHT22;6899;51.546;6.912;2023-04-25T05:32:34;6.30;99.90
13652;DHT22;6899;51.546;6.912;2023-04-25T05:35:01;6.40;99.90
13652;DHT22;6899;51.546;6.912;2023-04-25T05:37:28;6.40;99.90
13652;DHT22;6899;51.546;6.912;2023-04-25T05:39:57;6.60;99.90
13652;DHT22;6899;51.546;6.912;2023-04-25T05:42:24;6.70;99.90
13652;DHT22;6899;51.546;6.912;2023-04-25T05:44:50;6.80;99.90
13652;DHT22;6899;51.546;6.912;2023-04-25T05:47:17;6.80;99.90
13652;DHT22;6899;51.546;6.912;2023-04-25T05:49:44;6.90;99.90
13652;DHT22;6899;51.546;6.912;2023-04-25T05:52:10;7.10;99.90
13652;DHT22;6899;51.546;6.912;2023-04-25T05:54:37;7.30;99.90
13652;DHT22;6899;51.546;6.912;2023-04-25T05:57:05;7.40;99.90
13652;DHT22;6899;51.546;6.912;2023-04-25T05:59:32;7.20;99.90
13652;DHT22;6899;51.546;6.912;2023-04-25T06:01:59;7.00;99.90
13652;DHT22;6899;51.546;6.912;2023-04-25T06:04:26;7.00;99.90
13652;DHT22;6899;51.546;6.912;2023-04-25T06:06:53;7.10;99.90
13652;DHT22;6899;51.546;6.912;2023-04-25T06:09:19;7.80;99.90
13652;DHT22;6899;51.546;6.912;2023-04-25T06:11:46;8.80;99.90
13652;DHT22;6899;51.546;6.912;2023-04-25T06:14:14;9.30;99.90
13652;DHT22;6899;51.546;6.912;2023-04-25T06:16:41;9.30;99.90
13652;DHT22;6899;51.546;6.912;2023-04-25T06:19:08;9.20;99.90
13652;DHT22;6899;51.546;6.912;2023-04-25T06:21:34;9.20;99.90
13652;DHT22;6899;51.546;6.912;2023-04-25T06:24:05;9.00;99.90
13652;DHT22;6899;51.546;6.912;2023-04-25T06:26:31;8.60;99.90
13652;DHT22;6899;51.546;6.912;2023-04-25T06:28:58;8.30;99.90
13652;DHT22;6899;51.546;6.912;2023-04-25T06:31:26;8.10;99.90
13652;DHT22;6899;51.546;6.912;2023-04-25T06:33:54;7.70;99.90
13652;DHT22;6899;51.546;6.912;2023-04-25T06:36:23;7.20;99.90
13652;DHT22;6899;51.546;6.912;2023-04-25T06:38:51;6.90;99.90
13652;DHT22;6899;51.546;6.912;2023-04-25T06:41:18;6.80;99.90
13652;DHT22;6899;51.546;6.912;2023-04-25T06:43:45;6.80;99.90
13652;DHT22;6899;51.546;6.912;2023-04-25T06:46:12;6.80;99.90
13652;DHT22;6899;51.546;6.912;2023-04-25T06:48:40;6.80;99.90
13652;DHT22;6899;51.546;6.912;2023-04-25T06:51:07;6.90;99.90
13652;DHT22;6899;51.546;6.912;2023-04-25T06:53:33;7.00;99.90
13652;DHT22;6899;51.546;6.912;2023-04-25T06:56:00;7.10;99.90
13652;DHT22;6899;51.546;6.912;2023-04-25T06:58:27;7.30;99.90
13652;DHT22;6899;51.546;6.912;2023-04-25T07:00:53;7.60;99.90
13652;DHT22;6899;51.546;6.912;2023-04-25T07:03:20;8.00;99.90
13652;DHT22;6899;51.546;6.912;2023-04-25T07:05:48;8.30;99.90
13652;DHT22;6899;51.546;6.912;2023-04-25T07:08:15;8.20;99.90
13652;DHT22;6899;51.546;6.912;2023-04-25T07:10:42;8.10;99.90
13652;DHT22;6899;51.546;6.912;2023-04-25T07:13:09;7.90;99.90
13652;DHT22;6899;51.546;6.912;2023-04-25T07:15:35;7.90;99.90
13652;DHT22;6899;51.546;6.912;2023-04-25T07:18:02;8.10;99.90
13652;DHT22;6899;51.546;6.912;2023-04-25T07:20:29;8.40;99.90
13652;DHT22;6899;51.546;6.912;2023-04-25T07:23:00;8.70;99.90
13652;DHT22;6899;51.546;6.912;2023-04-25T07:25:27;9.30;99.90
13652;DHT22;6899;51.546;6.912;2023-04-25T07:27:54;10.10;99.90
13652;DHT22;6899;51.546;6.912;2023-04-25T07:30:21;10.80;99.90
13652;DHT22;6899;51.546;6.912;2023-04-25T07:32:48;11.20;99.90
13652;DHT22;6899;51.546;6.912;2023-04-25T07:35:15;11.30;99.90
13652;DHT22;6899;51.546;6.912;2023-04-25T07:37:42;11.50;99.90
13652;DHT22;6899;51.546;6.912;2023-04-25T07:40:11;11.20;99.90
13652;DHT22;6899;51.546;6.912;2023-04-25T07:42:38;11.20;99.90
13652;DHT22;6899;51.546;6.912;2023-04-25T07:45:06;11.50;99.90
13652;DHT22;6899;51.546;6.912;2023-04-25T07:47:32;12.00;99.90
13652;DHT22;6899;51.546;6.912;2023-04-25T07:49:59;12.80;99.90
13652;DHT22;6899;51.546;6.912;2023-04-25T07:52:26;12.90;99.20
13652;DHT22;6899;51.546;6.912;2023-04-25T07:54:53;13.60;99.90
13652;DHT22;6899;51.546;6.912;2023-04-25T07:57:21;14.50;92.20
13652;DHT22;6899;51.546;6.912;2023-04-25T07:59:57;15.20;83.40
13652;DHT22;6899;51.546;6.912;2023-04-25T08:02:23;14.40;79.10
13652;DHT22;6899;51.546;6.912;2023-04-25T08:04:51;12.80;84.20
13652;DHT22;6899;51.546;6.912;2023-04-25T08:07:18;12.40;95.80
13652;DHT22;6899;51.546;6.912;2023-04-25T08:09:48;12.30;96.60
13652;DHT22;6899;51.546;6.912;2023-04-25T08:12:25;12.20;98.70
13652;DHT22;6899;51.546;6.912;2023-04-25T08:14:52;11.60;98.20
13652;DHT22;6899;51.546;6.912;2023-04-25T08:17:19;11.80;99.40
13652;DHT22;6899;51.546;6.912;2023-04-25T08:19:46;11.80;99.20
13652;DHT22;6899;51.546;6.912;2023-04-25T08:22:12;11.90;99.90
13652;DHT22;6899;51.546;6.912;2023-04-25T08:24:40;12.20;99.90
13652;DHT22;6899;51.546;6.912;2023-04-25T08:27:06;12.70;99.90
13652;DHT22;6899;51.546;6.912;2023-04-25T08:29:35;13.30;97.20
13652;DHT22;6899;51.546;6.912;2023-04-25T08:32:02;13.40;93.00
13652;DHT22;6899;51.546;6.912;2023-04-25T08:34:28;13.80;93.90
13652;DHT22;6899;51.546;6.912;2023-04-25T08:36:55;13.40;91.50
13652;DHT22;6899;51.546;6.912;2023-04-25T08:39:22;13.00;93.20
13652;DHT22;6899;51.546;6.912;2023-04-25T08:41:49;13.20;94.20
13652;DHT22;6899;51.546;6.912;2023-04-25T08:44:16;14.00;92.90
13652;DHT22;6899;51.546;6.912;2023-04-25T08:46:46;14.30;85.40
13652;DHT22;6899;51.546;6.912;2023-04-25T08:49:17;14.60;86.60
13652;DHT22;6899;51.546;6.912;2023-04-25T08:51:46;14.40;83.50
13652;DHT22;6899;51.546;6.912;2023-04-25T08:54:14;14.20;80.20
13652;DHT22;6899;51.546;6.912;2023-04-25T08:56:43;13.90;83.90
13652;DHT22;6899;51.546;6.912;2023-04-25T08:59:11;13.60;91.70
13652;DHT22;6899;51.546;6.912;2023-04-25T09:01:38;12.80;84.00
13652;DHT22;6899;51.546;6.912;2023-04-25T09:04:06;13.00;91.70
13652;DHT22;6899;51.546;6.912;2023-04-25T09:06:36;13.60;84.60
13652;DHT22;6899;51.546;6.912;2023-04-25T09:09:03;14.20;78.60
13652;DHT22;6899;51.546;6.912;2023-04-25T09:11:31;14.30;79.40
13652;DHT22;6899;51.546;6.912;2023-04-25T09:14:12;14.50;74.60
13652;DHT22;6899;51.546;6.912;2023-04-25T09:16:57;14.60;68.90
13652;DHT22;6899;51.546;6.912;2023-04-25T09:19:27;14.30;70.40
13652;DHT22;6899;51.546;6.912;2023-04-25T09:21:54;14.30;71.50
13652;DHT22;6899;51.546;6.912;2023-04-25T09:24:30;13.90;75.30
13652;DHT22;6899;51.546;6.912;2023-04-25T09:26:57;13.70;72.40
13652;DHT22;6899;51.546;6.912;2023-04-25T09:29:29;14.00;84.00
13652;DHT22;6899;51.546;6.912;2023-04-25T09:32:11;13.90;74.20
13652;DHT22;6899;51.546;6.912;2023-04-25T09:34:43;13.40;73.50
13652;DHT22;6899;51.546;6.912;2023-04-25T09:37:17;13.10;73.50
13652;DHT22;6899;51.546;6.912;2023-04-25T09:39:44;13.00;77.70
13652;DHT22;6899;51.546;6.912;2023-04-25T09:42:11;13.20;71.10
13652;DHT22;6899;51.546;6.912;2023-04-25T09:44:42;13.20;71.80
13652;DHT22;6899;51.546;6.912;2023-04-25T09:47:10;13.60;77.10
13652;DHT22;6899;51.546;6.912;2023-04-25T09:49:39;13.80;68.10
13652;DHT22;6899;51.546;6.912;2023-04-25T09:52:09;14.30;70.80
13652;DHT22;6899;51.546;6.912;2023-04-25T09:54:39;14.80;66.70
13652;DHT22;6899;51.546;6.912;2023-04-25T09:57:11;15.40;64.00
13652;DHT22;6899;51.546;6.912;2023-04-25T09:59:39;15.60;61.80
13652;DHT22;6899;51.546;6.912;2023-04-25T10:02:07;15.30;58.80
13652;DHT22;6899;51.546;6.912;2023-04-25T10:04:35;14.80;59.60
13652;DHT22;6899;51.546;6.912;2023-04-25T10:07:03;13.70;59.50
13652;DHT22;6899;51.546;6.912;2023-04-25T10:09:33;13.20;63.40
13652;DHT22;6899;51.546;6.912;2023-04-25T10:12:03;13.20;70.30
13652;DHT22;6899;51.546;6.912;2023-04-25T10:14:30;13.30;73.30
13652;DHT22;6899;51.546;6.912;2023-04-25T10:16:57;13.50;62.40
13652;DHT22;6899;51.546;6.912;2023-04-25T10:19:25;13.30;64.00
13652;DHT22;6899;51.546;6.912;2023-04-25T10:21:54;12.60;69.90
13652;DHT22;6899;51.546;6.912;2023-04-25T10:24:22;12.30;74.70
13652;DHT22;6899;51.546;6.912;2023-04-25T10:26:51;12.30;73.90
13652;DHT22;6899;51.546;6.912;2023-04-25T10:29:25;12.00;74.20
13652;DHT22;6899;51.546;6.912;2023-04-25T10:31:52;11.80;78.00
13652;DHT22;6899;51.546;6.912;2023-04-25T10:34:19;11.50;74.20
13652;DHT22;6899;51.546;6.912;2023-04-25T10:36:51;11.00;77.50
13652;DHT22;6899;51.546;6.912;2023-04-25T10:39:23;10.70;85.30
13652;DHT22;6899;51.546;6.912;2023-04-25T10:41:56;10.10;95.40
13652;DHT22;6899;51.546;6.912;2023-04-25T10:44:26;9.60;99.90
13652;DHT22;6899;51.546;6.912;2023-04-25T10:46:55;9.10;99.90
13652;DHT22;6899;51.546;6.912;2023-04-25T10:49:29;8.70;99.90
13652;DHT22;6899;51.546;6.912;2023-04-25T10:52:12;8.50;99.90
13652;DHT22;6899;51.546;6.912;2023-04-25T10:54:43;8.50;99.90
13652;DHT22;6899;51.546;6.912;2023-04-25T10:57:31;8.40;99.90
13652;DHT22;6899;51.546;6.912;2023-04-25T10:59:59;8.30;99.90
13652;DHT22;6899;51.546;6.912;2023-04-25T11:02:27;8.50;99.90
13652;DHT22;6899;51.546;6.912;2023-04-25T11:04:54;8.90;99.90
13652;DHT22;6899;51.546;6.912;2023-04-25T11:07:29;9.20;99.90
13652;DHT22;6899;51.546;6.912;2023-04-25T11:10:01;9.70;99.90
13652;DHT22;6899;51.546;6.912;2023-04-25T11:12:31;10.40;99.90
13652;DHT22;6899;51.546;6.912;2023-04-25T11:14:59;11.10;99.90
13652;DHT22;6899;51.546;6.912;2023-04-25T11:17:27;11.40;99.90
13652;DHT22;6899;51.546;6.912;2023-04-25T11:19:54;12.00;99.90
13652;DHT22;6899;51.546;6.912;2023-04-25T11:22:21;12.20;96.50
13652;DHT22;6899;51.546;6.912;2023-04-25T11:24:48;12.90;93.40
13652;DHT22;6899;51.546;6.912;2023-04-25T11:27:16;13.30;84.10
13652;DHT22;6899;51.546;6.912;2023-04-25T11:29:44;13.70;90.30
13652;DHT22;6899;51.546;6.912;2023-04-25T11:32:14;14.10;88.60
13652;DHT22;6899;51.546;6.912;2023-04-25T11:34:43;14.60;75.40
13652;DHT22;6899;51.546;6.912;2023-04-25T11:37:10;15.60;68.90
13652;DHT22;6899;51.546;6.912;2023-04-25T11:39:38;15.70;67.80
13652;DHT22;6899;51.546;6.912;2023-04-25T11:42:05;15.10;62.00
13652;DHT22;6899;51.546;6.912;2023-04-25T11:44:32;14.60;60.90
13652;DHT22;6899;51.546;6.912;2023-04-25T11:47:00;14.20;67.00
13652;DHT22;6899;51.546;6.912;2023-04-25T11:49:30;14.20;63.90
13652;DHT22;6899;51.546;6.912;2023-04-25T11:51:57;14.30;65.50
13652;DHT22;6899;51.546;6.912;2023-04-25T11:54:24;14.10;63.40
13652;DHT22;6899;51.546;6.912;2023-04-25T11:56:51;14.50;68.00
13652;DHT22;6899;51.546;6.912;2023-04-25T11:59:23;14.30;60.10
13652;DHT22;6899;51.546;6.912;2023-04-25T12:01:50;14.40;67.30
13652;DHT22;6899;51.546;6.912;2023-04-25T12:04:19;14.90;64.40
13652;DHT22;6899;51.546;6.912;2023-04-25T12:06:48;14.70;64.00
13652;DHT22;6899;51.546;6.912;2023-04-25T12:09:16;14.80;61.10
13652;DHT22;6899;51.546;6.912;2023-04-25T12:11:48;14.10;62.40
13652;DHT22;6899;51.546;6.912;2023-04-25T12:14:21;14.30;63.90
13652;DHT22;6899;51.546;6.912;2023-04-25T12:16:49;15.20;63.70
13652;DHT22;6899;51.546;6.912;2023-04-25T12:19:19;15.50;60.80
13652;DHT22;6899;51.546;6.912;2023-04-25T12:21:47;16.60;60.80
13652;DHT22;6899;51.546;6.912;2023-04-25T12:24:15;16.90;60.10
13652;DHT22;6899;51.546;6.912;2023-04-25T12:26:49;17.50;57.60
13652;DHT22;6899;51.546;6.912;2023-04-25T12:29:18;16.90;57.80
13652;DHT22;6899;51.546;6.912;2023-04-25T12:31:45;15.60;60.40
13652;DHT22;6899;51.546;6.912;2023-04-25T12:34:12;13.50;67.90
13652;DHT22;6899;51.546;6.912;2023-04-25T12:36:40;12.30;98.70
13652;DHT22;6899;51.546;6.912;2023-04-25T12:39:07;11.60;99.90
13652;DHT22;6899;51.546;6.912;2023-04-25T12:41:34;11.30;99.90
13652;DHT22;6899;51.546;6.912;2023-04-25T12:44:00;11.50;99.90
13652;DHT22;6899;51.546;6.912;2023-04-25T12:46:27;11.40;99.90
13652;DHT22;6899;51.546;6.912;2023-04-25T12:48:57;11.00;99.90
13652;DHT22;6899;51.546;6.912;2023-04-25T12:51:24;10.70;99.90
13652;DHT22;6899;51.546;6.912;2023-04-25T12:53:52;10.30;99.90
13652;DHT22;6899;51.546;6.912;2023-04-25T12:56:19;9.90;99.90
13652;DHT22;6899;51.546;6.912;2023-04-25T12:58:46;9.60;99.90
13652;DHT22;6899;51.546;6.912;2023-04-25T13:01:13;9.50;99.90
13652;DHT22;6899;51.546;6.912;2023-04-25T13:03:40;9.50;99.90
13652;DHT22;6899;51.546;6.912;2023-04-25T13:06:07;9.50;99.90
13652;DHT22;6899;51.546;6.912;2023-04-25T13:08:34;9.40;99.90
13652;DHT22;6899;51.546;6.912;2023-04-25T13:11:03;9.70;99.90
13652;DHT22;6899;51.546;6.912;2023-04-25T13:13:36;9.80;99.90
13652;DHT22;6899;51.546;6.912;2023-04-25T13:16:04;10.60;99.90
13652;DHT22;6899;51.546;6.912;2023-04-25T13:18:31;11.50;99.90
13652;DHT22;6899;51.546;6.912;2023-04-25T13:20:59;12.20;99.90
13652;DHT22;6899;51.546;6.912;2023-04-25T13:23:27;13.10;99.90
13652;DHT22;6899;51.546;6.912;2023-04-25T13:25:55;13.80;99.40
13652;DHT22;6899;51.546;6.912;2023-04-25T13:28:24;13.70;95.90
13652;DHT22;6899;51.546;6.912;2023-04-25T13:30:51;14.50;95.80
13652;DHT22;6899;51.546;6.912;2023-04-25T13:33:18;14.80;77.90
13652;DHT22;6899;51.546;6.912;2023-04-25T13:35:46;15.10;81.60
13652;DHT22;6899;51.546;6.912;2023-04-25T13:38:19;15.00;72.90
13652;DHT22;6899;51.546;6.912;2023-04-25T13:40:46;15.70;70.70
13652;DHT22;6899;51.546;6.912;2023-04-25T13:43:12;15.50;66.60
13652;DHT22;6899;51.546;6.912;2023-04-25T13:45:41;15.70;69.40
13652;DHT22;6899;51.546;6.912;2023-04-25T13:48:07;14.70;57.00
13652;DHT22;6899;51.546;6.912;2023-04-25T13:50:34;14.30;57.70
13652;DHT22;6899;51.546;6.912;2023-04-25T13:53:01;14.40;61.50
13652;DHT22;6899;51.546;6.912;2023-04-25T13:55:28;15.00;59.90
13652;DHT22;6899;51.546;6.912;2023-04-25T13:57:55;15.60;55.30
13652;DHT22;6899;51.546;6.912;2023-04-25T14:00:22;15.80;52.90
13652;DHT22;6899;51.546;6.912;2023-04-25T14:02:50;16.00;52.10
13652;DHT22;6899;51.546;6.912;2023-04-25T14:05:17;16.50;55.30
13652;DHT22;6899;51.546;6.912;2023-04-25T14:07:44;16.70;49.50
13652;DHT22;6899;51.546;6.912;2023-04-25T14:10:10;17.10;52.30
13652;DHT22;6899;51.546;6.912;2023-04-25T14:12:37;16.60;52.00
13652;DHT22;6899;51.546;6.912;2023-04-25T14:15:05;16.00;51.70
13652;DHT22;6899;51.546;6.912;2023-04-25T14:17:32;15.90;50.60
13652;DHT22;6899;51.546;6.912;2023-04-25T14:20:00;16.40;52.50
13652;DHT22;6899;51.546;6.912;2023-04-25T14:22:27;16.40;47.50
13652;DHT22;6899;51.546;6.912;2023-04-25T14:24:56;16.20;48.70
13652;DHT22;6899;51.546;6.912;2023-04-25T14:27:23;15.70;49.00
13652;DHT22;6899;51.546;6.912;2023-04-25T14:29:50;15.70;52.30
13652;DHT22;6899;51.546;6.912;2023-04-25T14:32:17;15.10;51.50
13652;DHT22;6899;51.546;6.912;2023-04-25T14:34:44;13.90;54.70
13652;DHT22;6899;51.546;6.912;2023-04-25T14:37:12;13.30;59.10
13652;DHT22;6899;51.546;6.912;2023-04-25T14:39:38;12.70;63.40
13652;DHT22;6899;51.546;6.912;2023-04-25T14:42:05;12.40;66.50
13652;DHT22;6899;51.546;6.912;2023-04-25T14:44:32;12.00;70.50
13652;DHT22;6899;51.546;6.912;2023-04-25T14:46:59;12.40;73.80
13652;DHT22;6899;51.546;6.912;2023-04-25T14:49:26;12.90;74.20
13652;DHT22;6899;51.546;6.912;2023-04-25T14:51:53;13.70;72.20
13652;DHT22;6899;51.546;6.912;2023-04-25T14:54:24;14.10;68.80
13652;DHT22;6899;51.546;6.912;2023-04-25T14:56:54;14.30;64.30
13652;DHT22;6899;51.546;6.912;2023-04-25T14:59:21;14.10;63.00
13652;DHT22;6899;51.546;6.912;2023-04-25T15:01:49;14.90;62.70
13652;DHT22;6899;51.546;6.912;2023-04-25T15:04:16;15.50;58.40
13652;DHT22;6899;51.546;6.912;2023-04-25T15:06:43;15.40;57.80
13652;DHT22;6899;51.546;6.912;2023-04-25T15:09:10;15.60;56.70
13652;DHT22;6899;51.546;6.912;2023-04-25T15:11:41;15.80;56.80
13652;DHT22;6899;51.546;6.912;2023-04-25T15:14:08;15.90;54.00
13652;DHT22;6899;51.546;6.912;2023-04-25T15:16:38;15.50;54.10
13652;DHT22;6899;51.546;6.912;2023-04-25T15:19:05;15.30;54.50
13652;DHT22;6899;51.546;6.912;2023-04-25T15:21:32;16.10;55.00
13652;DHT22;6899;51.546;6.912;2023-04-25T15:23:59;16.20;52.40
13652;DHT22;6899;51.546;6.912;2023-04-25T15:26:26;16.50;50.20
13652;DHT22;6899;51.546;6.912;2023-04-25T15:28:55;15.70;50.90
13652;DHT22;6899;51.546;6.912;2023-04-25T15:31:22;15.20;51.60
13652;DHT22;6899;51.546;6.912;2023-04-25T15:33:48;15.20;52.70
13652;DHT22;6899;51.546;6.912;2023-04-25T15:36:15;14.50;52.80
13652;DHT22;6899;51.546;6.912;2023-04-25T15:38:43;14.00;55.20
13652;DHT22;6899;51.546;6.912;2023-04-25T15:41:10;13.90;56.70
13652;DHT22;6899;51.546;6.912;2023-04-25T15:43:38;13.80;55.70
13652;DHT22;6899;51.546;6.912;2023-04-25T15:46:06;13.10;55.30
13652;DHT22;6899;51.546;6.912;2023-04-25T15:48:33;12.50;58.80
13652;DHT22;6899;51.546;6.912;2023-04-25T15:51:00;12.20;59.00
13652;DHT22;6899;51.546;6.912;2023-04-25T15:53:33;12.10;61.30
13652;DHT22;6899;51.546;6.912;2023-04-25T15:56:00;11.60;60.90
13652;DHT22;6899;51.546;6.912;2023-04-25T15:58:29;11.30;63.00
13652;DHT22;6899;51.546;6.912;2023-04-25T16:00:55;11.30;65.80